createdAt,value
2019-06-07T00:00:37.575Z,16.62
2019-06-07T00:02:56.952Z,16.52
2019-06-07T00:05:26.439Z,16.50
2019-06-07T00:08:07.048Z,16.44
2019-06-07T00:10:36.690Z,16.49
2019-06-07T00:12:59.112Z,16.46
2019-06-07T00:15:29.363Z,16.31
2019-06-07T00:17:58.901Z,16.10
2019-06-07T00:20:28.679Z,16.08
2019-06-07T00:22:58.131Z,16.14
2019-06-07T00:25:27.805Z,16.21
2019-06-07T00:27:57.258Z,16.31
2019-06-07T00:30:42.331Z,16.25
2019-06-07T00:32:58.781Z,16.27
2019-06-07T00:35:28.241Z,16.27
2019-06-07T00:37:57.712Z,16.30
2019-06-07T00:40:31.834Z,16.31
2019-06-07T00:42:58.323Z,16.31
2019-06-07T00:45:27.812Z,16.21
2019-06-07T00:47:57.325Z,16.18
2019-06-07T00:50:26.877Z,16.10
2019-06-07T00:53:14.667Z,16.02
2019-06-07T00:55:27.850Z,15.92
2019-06-07T00:57:57.722Z,15.87
2019-06-07T01:00:27.353Z,15.85
2019-06-07T01:02:57.118Z,15.84
2019-06-07T01:05:31.433Z,15.80
2019-06-07T01:07:58.786Z,15.82
2019-06-07T01:10:51.598Z,15.57
2019-06-07T01:12:59.794Z,15.16
2019-06-07T01:15:30.195Z,15.04
2019-06-07T01:18:33.629Z,15.07
2019-06-07T01:20:31.298Z,15.09
2019-06-07T01:23:02.307Z,15.04
2019-06-07T01:25:32.151Z,14.98
2019-06-07T01:28:02.168Z,14.82
2019-06-07T01:30:32.296Z,14.85
2019-06-07T01:33:02.322Z,14.85
2019-06-07T01:35:32.033Z,14.86
2019-06-07T01:38:02.987Z,14.77
2019-06-07T01:40:33.135Z,14.70
2019-06-07T01:43:02.743Z,14.73
2019-06-07T01:45:32.535Z,14.74
2019-06-07T01:48:02.187Z,14.73
2019-06-07T01:50:31.835Z,14.75
2019-06-07T01:53:01.367Z,14.77
2019-06-07T01:55:32.749Z,14.73
2019-06-07T01:58:02.079Z,14.63
2019-06-07T02:00:32.740Z,14.55
2019-06-07T02:03:02.552Z,14.50
2019-06-07T02:05:32.491Z,14.39
2019-06-07T02:08:02.135Z,14.30
2019-06-07T02:10:33.691Z,14.27
2019-06-07T02:13:03.180Z,14.23
2019-06-07T02:15:36.739Z,14.21
2019-06-07T02:18:04.433Z,14.19
2019-06-07T02:20:34.637Z,14.36
2019-06-07T02:23:04.403Z,14.48
2019-06-07T02:25:45.511Z,14.53
2019-06-07T02:28:26.470Z,14.50
2019-06-07T02:30:45.846Z,14.53
2019-06-07T02:33:07.816Z,14.48
2019-06-07T02:35:40.641Z,14.45
2019-06-07T02:38:08.474Z,14.50
2019-06-07T02:40:37.963Z,14.38
2019-06-07T02:43:07.955Z,14.29
2019-06-07T02:45:43.154Z,14.17
2019-06-07T02:48:08.713Z,14.09
2019-06-07T02:50:38.986Z,14.07
2019-06-07T02:53:08.909Z,14.03
2019-06-07T02:56:32.811Z,14.01
2019-06-07T02:58:09.638Z,13.97
2019-06-07T03:01:06.139Z,13.92
2019-06-07T03:03:18.252Z,13.81
2019-06-07T03:05:48.384Z,13.77
2019-06-07T03:08:18.670Z,13.73
2019-06-07T03:10:50.185Z,13.69
2019-06-07T03:13:21.468Z,13.67
2019-06-07T03:15:53.539Z,13.62
2019-06-07T03:18:30.104Z,13.56
2019-06-07T03:21:05.495Z,13.54
2019-06-07T03:23:32.376Z,13.50
2019-06-07T03:26:04.929Z,13.51
2019-06-07T03:28:37.397Z,13.49
2019-06-07T03:31:05.655Z,13.47
2019-06-07T03:33:41.570Z,13.42
2019-06-07T03:36:22.664Z,13.36
2019-06-07T03:38:39.940Z,13.31
2019-06-07T03:41:09.723Z,13.33
2019-06-07T03:43:40.752Z,13.26
2019-06-07T03:46:10.427Z,13.26
2019-06-07T03:48:41.520Z,13.40
2019-06-07T03:51:24.110Z,13.55
2019-06-07T03:53:42.318Z,13.55
2019-06-07T03:56:12.750Z,13.59
2019-06-07T03:58:49.702Z,13.64
2019-06-07T04:01:13.896Z,13.68
2019-06-07T04:03:51.093Z,13.74
2019-06-07T04:06:14.634Z,13.84
2019-06-07T04:08:44.102Z,13.92
2019-06-07T04:11:13.609Z,14.04
2019-06-07T04:13:43.390Z,14.13
2019-06-07T04:16:12.967Z,14.14
2019-06-07T04:18:42.693Z,14.20
2019-06-07T04:21:12.100Z,14.23
2019-06-07T04:23:45.544Z,14.28
2019-06-07T04:26:12.737Z,14.36
2019-06-07T04:29:30.851Z,14.43
2019-06-07T04:31:13.702Z,14.48
2019-06-07T04:33:43.872Z,14.51
2019-06-07T04:36:13.793Z,14.59
2019-06-07T04:38:43.272Z,14.65
2019-06-07T04:41:13.932Z,14.78
2019-06-07T04:43:43.430Z,14.97
2019-06-07T04:46:12.926Z,15.03
2019-06-07T04:48:43.916Z,15.14
2019-06-07T04:51:14.831Z,15.33
2019-06-07T04:53:44.402Z,15.44
2019-06-07T04:56:13.879Z,15.47
2019-06-07T04:58:43.456Z,15.55
2019-06-07T05:01:26.708Z,15.72
2019-06-07T05:03:44.609Z,15.83
2019-06-07T05:06:14.143Z,15.72
2019-06-07T05:08:44.040Z,15.70
2019-06-07T05:11:13.528Z,15.85
2019-06-07T05:13:44.203Z,15.85
2019-06-07T05:16:14.133Z,15.98
2019-06-07T05:18:43.700Z,16.05
2019-06-07T05:21:13.211Z,16.14
2019-06-07T05:24:05.631Z,16.14
2019-06-07T05:26:13.881Z,16.16
2019-06-07T05:28:43.370Z,16.33
2019-06-07T05:31:13.151Z,16.43
2019-06-07T05:33:43.553Z,16.51
2019-06-07T05:36:13.207Z,16.55
2019-06-07T05:38:44.991Z,16.71
2019-06-07T05:41:13.928Z,17.00
2019-06-07T05:43:51.472Z,17.51
2019-06-07T05:46:14.711Z,17.90
2019-06-07T05:48:44.179Z,18.27
2019-06-07T05:51:13.708Z,18.39
2019-06-07T05:53:46.006Z,18.33
2019-06-07T05:56:16.293Z,18.39
2019-06-07T05:58:46.247Z,18.17
2019-06-07T06:01:42.255Z,18.54
2019-06-07T06:03:48.438Z,19.30
2019-06-07T06:06:18.927Z,20.09
2019-06-07T06:08:49.586Z,21.16
2019-06-07T06:11:19.201Z,22.44
2019-06-07T06:14:05.361Z,22.79
2019-06-07T06:16:19.863Z,23.51
2019-06-07T06:18:49.524Z,23.07
2019-06-07T06:21:20.437Z,23.10
2019-06-07T06:23:51.955Z,22.71
2019-06-07T06:26:22.115Z,22.12
2019-06-07T06:28:51.745Z,21.94
2019-06-07T06:31:21.539Z,22.04
2019-06-07T06:33:51.164Z,22.96
2019-06-07T06:36:21.246Z,22.69
2019-06-07T06:38:51.644Z,22.85
2019-06-07T06:41:22.115Z,23.97
2019-06-07T06:43:52.838Z,23.83
2019-06-07T06:46:38.110Z,25.15
2019-06-07T06:48:55.162Z,24.91
2019-06-07T06:51:25.133Z,23.84
2019-06-07T06:53:54.615Z,22.98
2019-06-07T06:56:24.662Z,22.40
2019-06-07T07:01:25.419Z,21.06
2019-06-07T07:04:11.574Z,20.45
2019-06-07T07:06:27.052Z,20.32
2019-06-07T07:08:57.334Z,19.97
2019-06-07T07:11:26.791Z,19.79
2019-06-07T07:13:57.352Z,19.92
2019-06-07T07:16:27.130Z,19.84
2019-06-07T07:18:56.857Z,19.79
2019-06-07T07:21:26.354Z,19.79
2019-06-07T07:24:19.432Z,19.66
2019-06-07T07:26:27.079Z,19.70
2019-06-07T07:28:57.807Z,19.74
2019-06-07T07:31:27.566Z,19.87
2019-06-07T07:34:28.286Z,19.22
2019-06-07T07:36:39.375Z,19.49
2019-06-07T07:39:05.046Z,19.10
2019-06-07T07:41:30.948Z,18.64
2019-06-07T07:44:06.571Z,18.33
2019-06-07T07:46:31.893Z,17.82
2019-06-07T07:49:01.355Z,18.24
2019-06-07T07:51:30.980Z,18.80
2019-06-07T07:54:10.109Z,18.74
2019-06-07T07:56:31.769Z,18.37
2019-06-07T07:59:02.634Z,18.79
2019-06-07T08:01:32.579Z,18.81
2019-06-07T08:04:02.064Z,18.44
2019-06-07T08:06:31.627Z,18.94
2019-06-07T08:09:01.099Z,19.61
2019-06-07T08:11:30.570Z,20.19
2019-06-07T08:14:00.068Z,20.22
2019-06-07T08:16:29.589Z,20.96
2019-06-07T08:19:03.899Z,21.58
2019-06-07T08:21:30.511Z,21.90
2019-06-07T08:24:04.248Z,21.80
2019-06-07T08:26:31.678Z,21.47
2019-06-07T08:29:02.993Z,21.90
2019-06-07T08:31:32.698Z,21.23
2019-06-07T08:34:02.162Z,21.18
2019-06-07T08:36:42.123Z,20.56
2019-06-07T08:39:07.534Z,20.09
2019-06-07T08:41:34.641Z,20.79
2019-06-07T08:44:22.662Z,20.72
2019-06-07T08:46:35.979Z,20.77
2019-06-07T08:49:05.854Z,22.14
2019-06-07T08:51:35.507Z,22.73
2019-06-07T08:54:21.755Z,23.17
2019-06-07T08:56:36.453Z,23.57
2019-06-07T08:59:11.091Z,23.35
2019-06-07T09:01:37.609Z,22.57
2019-06-07T09:04:10.893Z,22.74
2019-06-07T09:07:02.391Z,22.27
2019-06-07T09:09:09.923Z,22.58
2019-06-07T09:11:39.662Z,23.29
2019-06-07T09:14:09.911Z,23.47
2019-06-07T09:16:39.438Z,23.25
2019-06-07T09:19:11.033Z,22.60
2019-06-07T09:21:40.186Z,21.69
2019-06-07T09:24:11.902Z,22.23
2019-06-07T09:26:41.244Z,22.53
2019-06-07T09:29:12.007Z,22.61
2019-06-07T09:31:52.476Z,22.62
2019-06-07T09:34:15.138Z,22.90
2019-06-07T09:36:44.009Z,22.09
2019-06-07T09:39:13.565Z,23.38
2019-06-07T09:41:49.688Z,22.56
2019-06-07T09:44:25.213Z,23.62
2019-06-07T09:46:45.624Z,24.91
2019-06-07T09:49:28.229Z,25.50
2019-06-07T09:51:46.367Z,26.10
2019-06-07T09:55:02.437Z,26.26
2019-06-07T09:56:47.697Z,25.10
2019-06-07T09:59:17.720Z,24.75
2019-06-07T10:01:47.300Z,25.75
2019-06-07T10:04:30.661Z,25.53
2019-06-07T10:06:47.932Z,25.03
2019-06-07T10:11:49.027Z,23.04
2019-06-07T10:14:18.857Z,23.61
2019-06-07T10:16:48.954Z,22.29
2019-06-07T10:19:18.556Z,23.86
2019-06-07T10:21:48.083Z,24.72
2019-06-07T10:24:17.562Z,23.74
2019-06-07T10:26:47.058Z,24.11
2019-06-07T10:29:16.519Z,23.30
2019-06-07T10:31:46.107Z,22.83
2019-06-07T10:34:15.526Z,22.48
2019-06-07T10:36:45.087Z,23.08
2019-06-07T10:41:42.853Z,23.20
2019-06-07T10:44:12.398Z,23.13
2019-06-07T10:46:42.211Z,23.91
2019-06-07T10:49:12.247Z,25.47
2019-06-07T10:51:41.780Z,25.25
2019-06-07T10:54:25.722Z,26.31
2019-06-07T10:56:42.534Z,26.92
2019-06-07T10:59:13.591Z,27.49
2019-06-07T11:01:43.287Z,28.53
2019-06-07T11:04:13.836Z,28.35
2019-06-07T11:06:43.289Z,27.70
2019-06-07T11:09:14.226Z,28.03
2019-06-07T11:11:43.726Z,28.19
2019-06-07T11:14:14.591Z,27.63
2019-06-07T11:16:44.356Z,26.87
2019-06-07T11:19:17.408Z,27.17
2019-06-07T11:21:45.008Z,26.49
2019-06-07T11:24:14.536Z,26.21
2019-06-07T11:26:44.052Z,26.11
2019-06-07T11:29:15.182Z,26.96
2019-06-07T11:31:47.438Z,27.28
2019-06-07T11:34:16.155Z,27.04
2019-06-07T11:36:45.683Z,27.71
2019-06-07T11:39:15.283Z,29.09
2019-06-07T11:41:44.746Z,29.47
2019-06-07T11:44:15.003Z,29.10
2019-06-07T11:46:44.503Z,28.22
2019-06-07T11:49:19.816Z,28.18
2019-06-07T11:51:45.608Z,27.81
2019-06-07T11:54:16.250Z,28.53
2019-06-07T11:56:45.861Z,28.40
2019-06-07T11:59:15.422Z,28.92
2019-06-07T12:01:44.825Z,29.64
2019-06-07T12:04:31.095Z,28.76
2019-06-07T12:06:45.633Z,27.08
2019-06-07T12:09:16.694Z,27.27
2019-06-07T12:11:46.707Z,28.65
2019-06-07T12:14:16.830Z,29.44
2019-06-07T12:16:47.037Z,31.00
2019-06-07T12:19:17.676Z,29.87
2019-06-07T12:21:47.472Z,30.37
2019-06-07T12:24:19.314Z,29.58
2019-06-07T12:26:48.313Z,30.60
2019-06-07T12:29:19.120Z,30.73
2019-06-07T12:31:48.664Z,30.28
2019-06-07T12:34:19.516Z,30.50
2019-06-07T12:36:53.952Z,29.53
2019-06-07T12:39:23.822Z,29.71
2019-06-07T12:41:53.284Z,28.92
2019-06-07T12:44:22.930Z,28.15
2019-06-07T12:46:52.428Z,27.67
2019-06-07T12:49:23.266Z,28.98
2019-06-07T12:51:52.990Z,28.24
2019-06-07T12:54:23.867Z,28.92
2019-06-07T12:56:54.002Z,29.53
2019-06-07T12:59:24.335Z,29.75
2019-06-07T13:01:53.926Z,29.41
2019-06-07T13:04:24.865Z,27.77
2019-06-07T13:06:54.745Z,28.04
2019-06-07T13:09:24.277Z,28.12
2019-06-07T13:11:53.785Z,28.75
2019-06-07T13:14:24.033Z,28.55
2019-06-07T13:16:53.513Z,29.61
2019-06-07T13:19:24.244Z,28.74
2019-06-07T13:21:53.821Z,29.03
2019-06-07T13:24:24.959Z,28.29
2019-06-07T13:26:54.602Z,29.05
2019-06-07T13:29:24.821Z,29.15
2019-06-07T13:31:55.234Z,27.03
2019-06-07T13:34:44.082Z,27.15
2019-06-07T13:37:13.590Z,27.74
2019-06-07T13:39:43.413Z,27.97
2019-06-07T13:42:12.885Z,29.06
2019-06-07T13:44:42.415Z,29.12
2019-06-07T13:47:12.217Z,28.49
2019-06-07T13:49:49.533Z,28.55
2019-06-07T13:52:23.138Z,27.93
2019-06-07T13:55:02.115Z,28.63
2019-06-07T13:57:30.515Z,28.27
2019-06-07T13:59:59.944Z,29.14
2019-06-07T14:02:29.914Z,29.63
2019-06-07T14:04:59.400Z,28.90
2019-06-07T14:07:30.091Z,28.50
2019-06-07T14:09:59.667Z,28.86
2019-06-07T14:12:29.644Z,27.74
2019-06-07T14:14:59.067Z,27.89
2019-06-07T14:17:30.956Z,28.44
2019-06-07T14:20:04.316Z,28.41
2019-06-07T14:22:33.862Z,27.54
2019-06-07T14:30:42.543Z,27.86
2019-06-07T14:33:12.292Z,27.87
2019-06-07T14:35:41.775Z,28.37
2019-06-07T14:38:11.616Z,28.07
2019-06-07T14:40:41.079Z,27.95
2019-06-07T14:43:10.539Z,28.25
2019-06-07T14:45:40.047Z,27.82
2019-06-07T14:48:09.822Z,27.59
2019-06-07T14:50:39.314Z,27.97
2019-06-07T14:53:08.966Z,28.35
2019-06-07T14:55:38.444Z,27.98
2019-06-07T14:58:08.143Z,27.36
2019-06-07T15:00:41.830Z,26.39
2019-06-07T15:03:11.746Z,27.56
2019-06-07T15:05:41.227Z,27.47
2019-06-07T15:08:10.702Z,28.65
2019-06-07T15:10:40.184Z,28.37
2019-06-07T15:13:10.559Z,28.23
2019-06-07T15:15:40.013Z,28.35
2019-06-07T15:18:09.528Z,28.74
2019-06-07T15:20:38.990Z,28.89
2019-06-07T15:23:08.648Z,29.19
2019-06-07T15:25:39.624Z,29.00
2019-06-07T15:28:09.151Z,28.89
2019-06-07T15:30:38.916Z,28.11
2019-06-07T15:33:08.372Z,27.38
2019-06-07T15:35:39.110Z,26.72
2019-06-07T15:38:08.673Z,26.89
2019-06-07T15:40:39.692Z,26.90
2019-06-07T15:43:09.280Z,25.99
2019-06-07T15:45:39.748Z,26.42
2019-06-07T15:48:09.296Z,26.05
2019-06-07T15:50:38.756Z,25.81
2019-06-07T15:53:08.926Z,25.68
2019-06-07T15:55:44.906Z,25.81
2019-06-07T15:58:09.541Z,25.97
2019-06-07T16:00:40.578Z,26.29
2019-06-07T16:03:10.243Z,26.82
2019-06-07T16:05:40.508Z,26.66
2019-06-07T16:08:10.066Z,26.62
2019-06-07T16:10:40.858Z,26.67
2019-06-07T16:13:10.593Z,26.95
2019-06-07T16:15:41.358Z,27.03
2019-06-07T16:18:10.921Z,26.76
2019-06-07T16:20:41.504Z,27.02
2019-06-07T16:23:10.993Z,27.22
2019-06-07T16:25:40.505Z,27.56
2019-06-07T16:28:10.267Z,26.77
2019-06-07T16:30:40.599Z,26.99
2019-06-07T16:33:10.321Z,27.34
2019-06-07T16:35:41.039Z,26.72
2019-06-07T16:38:10.522Z,26.72
2019-06-07T16:40:40.360Z,26.81
2019-06-07T16:43:17.541Z,26.80
2019-06-07T16:45:42.837Z,26.46
2019-06-07T16:48:12.386Z,26.74
2019-06-07T16:50:42.954Z,26.54
2019-06-07T16:53:12.502Z,26.26
2019-06-07T16:55:42.728Z,26.44
2019-06-07T16:58:12.371Z,26.41
2019-06-07T17:00:42.284Z,26.52
2019-06-07T17:03:11.872Z,26.44
2019-06-07T17:05:44.880Z,26.19
2019-06-07T17:08:12.500Z,26.21
2019-06-07T17:10:42.526Z,26.05
2019-06-07T17:13:12.423Z,25.64
2019-06-07T17:15:42.746Z,25.79
2019-06-07T17:18:12.276Z,25.56
2019-06-07T17:20:42.990Z,25.35
2019-06-07T17:23:12.694Z,25.07
2019-06-07T17:25:43.417Z,24.93
2019-06-07T17:28:13.399Z,24.88
2019-06-07T17:30:43.945Z,25.01
2019-06-07T17:33:13.529Z,25.07
2019-06-07T17:35:44.649Z,25.16
2019-06-07T17:38:14.230Z,25.05
2019-06-07T17:40:44.951Z,24.89
2019-06-07T17:43:14.519Z,24.81
2019-06-07T17:45:45.303Z,24.63
2019-06-07T17:48:15.875Z,24.49
2019-06-07T17:50:45.868Z,24.40
2019-06-07T17:53:15.442Z,24.35
2019-06-07T17:55:46.177Z,24.27
2019-06-07T17:58:15.662Z,24.23
2019-06-07T18:00:53.232Z,24.16
2019-06-07T18:03:22.694Z,24.09
2019-06-07T18:05:53.732Z,24.08
2019-06-07T18:08:24.747Z,24.10
2019-06-07T18:10:54.355Z,24.01
2019-06-07T18:13:23.811Z,24.04
2019-06-07T18:15:57.921Z,24.01
2019-06-07T18:18:24.589Z,23.95
2019-06-07T18:20:55.531Z,23.91
2019-06-07T18:23:25.112Z,23.92
2019-06-07T18:25:54.844Z,23.83
2019-06-07T18:28:24.309Z,23.80
2019-06-07T18:30:54.907Z,23.72
2019-06-07T18:33:24.415Z,23.62
2019-06-07T18:35:55.222Z,23.51
2019-06-07T18:38:24.833Z,23.43
2019-06-07T18:40:55.374Z,23.34
2019-06-07T18:43:25.256Z,23.30
2019-06-07T18:45:55.954Z,23.27
2019-06-07T18:48:25.787Z,23.25
2019-06-07T18:50:55.334Z,23.19
2019-06-07T18:53:24.852Z,23.11
2019-06-07T18:55:54.607Z,23.01
2019-06-07T18:58:25.370Z,22.89
2019-06-07T19:00:55.528Z,22.81
2019-06-07T19:03:25.298Z,22.69
2019-06-07T19:05:54.765Z,22.57
2019-06-07T19:08:24.557Z,22.42
2019-06-07T19:10:56.782Z,22.29
2019-06-07T19:13:26.602Z,22.15
2019-06-07T19:15:56.091Z,22.04
2019-06-07T19:18:25.555Z,21.94
2019-06-07T19:20:56.409Z,21.88
2019-06-07T19:23:26.012Z,21.82
2019-06-07T19:25:56.362Z,21.70
2019-06-07T19:28:26.134Z,21.62
2019-06-07T19:30:55.619Z,21.57
2019-06-07T19:33:25.339Z,21.52
2019-06-07T19:35:55.539Z,21.42
2019-06-07T19:38:25.009Z,21.36
2019-06-07T19:40:55.795Z,21.40
2019-06-07T19:43:25.408Z,21.34
2019-06-07T19:45:55.988Z,21.26
2019-06-07T19:48:25.645Z,21.22
2019-06-07T19:50:55.124Z,21.20
2019-06-07T19:53:24.603Z,21.17
2019-06-07T19:55:55.027Z,21.16
2019-06-07T19:58:24.615Z,21.16
2019-06-07T20:00:55.487Z,21.05
2019-06-07T20:03:25.500Z,21.04
2019-06-07T20:05:58.575Z,20.98
2019-06-07T20:08:28.375Z,20.84
2019-06-07T20:10:58.460Z,20.73
2019-06-07T20:13:28.076Z,20.66
2019-06-07T20:15:58.729Z,20.59
2019-06-07T20:18:28.382Z,20.53
2019-06-07T20:20:58.526Z,20.53
2019-06-07T20:23:28.195Z,20.42
2019-06-07T20:25:57.663Z,20.35
2019-06-07T20:28:27.432Z,20.33
2019-06-07T20:30:57.652Z,20.30
2019-06-07T20:33:27.288Z,20.24
2019-06-07T20:35:57.098Z,20.19
2019-06-07T20:38:26.600Z,20.13
2019-06-07T20:40:56.995Z,20.07
2019-06-07T20:43:26.521Z,20.00
2019-06-07T20:45:59.168Z,19.87
2019-06-07T20:48:27.161Z,19.82
2019-06-07T20:50:59.086Z,19.77
2019-06-07T20:53:27.827Z,19.70
2019-06-07T20:55:58.505Z,19.61
2019-06-07T20:58:28.079Z,19.56
2019-06-07T21:00:58.580Z,19.46
2019-06-07T21:03:29.270Z,19.44
2019-06-07T21:05:59.308Z,19.39
2019-06-07T21:08:28.910Z,19.34
2019-06-07T21:10:59.878Z,19.29
2019-06-07T21:13:29.835Z,19.25
2019-06-07T21:16:00.398Z,19.21
2019-06-07T21:18:29.834Z,19.19
2019-06-07T21:21:00.298Z,19.18
2019-06-07T21:23:29.930Z,19.18
2019-06-07T21:26:00.689Z,19.23
2019-06-07T21:28:30.409Z,19.15
2019-06-07T21:30:59.871Z,19.13
2019-06-07T21:33:29.330Z,19.15
2019-06-07T21:36:04.584Z,19.12
2019-06-07T21:38:37.203Z,19.15
2019-06-07T21:41:06.680Z,19.11
2019-06-07T21:43:36.188Z,19.14
2019-06-07T21:46:11.503Z,19.14
2019-06-07T21:48:36.893Z,19.07
2019-06-07T21:51:06.447Z,19.13
2019-06-07T21:53:35.984Z,19.23
2019-06-07T21:56:06.989Z,19.34
2019-06-07T21:58:36.625Z,19.33
2019-06-07T22:01:12.243Z,19.42
2019-06-07T22:03:41.780Z,19.41
2019-06-07T22:06:11.778Z,19.41
2019-06-07T22:08:41.363Z,19.33
2019-06-07T22:11:12.297Z,19.17
2019-06-07T22:13:41.993Z,19.02
2019-06-07T22:16:23.335Z,18.89
2019-06-07T22:18:42.683Z,18.77
2019-06-07T22:21:12.684Z,18.67
2019-06-07T22:23:43.745Z,18.56
2019-06-07T22:26:13.550Z,18.46
2019-06-07T22:28:43.375Z,18.41
2019-06-07T22:31:13.109Z,18.34
2019-06-07T22:33:43.132Z,18.27
2019-06-07T22:36:13.211Z,18.21
2019-06-07T22:38:43.029Z,18.16
2019-06-07T22:41:13.911Z,18.11
2019-06-07T22:43:43.571Z,18.07
2019-06-07T22:46:13.281Z,18.03
2019-06-07T22:48:42.776Z,17.99
2019-06-07T22:51:13.329Z,17.95
2019-06-07T22:53:43.390Z,17.95
2019-06-07T22:56:20.349Z,17.92
2019-06-07T22:58:49.832Z,17.94
2019-06-07T23:01:20.228Z,17.99
2019-06-07T23:03:49.796Z,17.96
2019-06-07T23:06:19.279Z,17.92
2019-06-07T23:08:48.781Z,17.94
2019-06-07T23:11:19.495Z,17.92
2019-06-07T23:13:49.286Z,17.84
2019-06-07T23:16:19.892Z,17.75
2019-06-07T23:18:49.821Z,17.70
2019-06-07T23:21:20.320Z,17.65
2019-06-07T23:23:50.006Z,17.62
2019-06-07T23:26:20.592Z,17.63
2019-06-07T23:28:50.237Z,17.62
2019-06-07T23:31:20.831Z,17.60
2019-06-07T23:33:56.645Z,17.58
2019-06-07T23:36:26.158Z,17.58
2019-06-07T23:38:55.885Z,17.57
2019-06-07T23:41:25.391Z,17.57
2019-06-07T23:43:55.164Z,17.52
2019-06-07T23:46:24.675Z,17.45
2019-06-07T23:48:54.490Z,17.42
2019-06-07T23:51:23.983Z,17.42
2019-06-07T23:53:53.717Z,17.48
2019-06-07T23:56:23.215Z,17.65
2019-06-07T23:58:52.963Z,17.89
